Valley International Airport Harlingen US
ICAO: KHRL
IATA: HRL
Category: Medium
Scheduled Services: Yes

Elevation: 36 ft
TransAlt. 18000 ft.

Airport Communications:
APP/DEP:120.7
ATIS:124.85
CTAF:119.3
GND:121.7
SAN ANGELO RDO:122.35
TWR:119.3
UNICOM:122.95

KHRL Zoom In..

If Map Doesn't Load, Click Here

Runways:

(A) RW 13 length 7257 ft width 150 ft
---- / hdg 131

(B) RW 17L length 5949 ft width 150 ft
---- / hdg 176

(C) RW 17R length 8301 ft width 150 ft
ILS 111.50 / hdg 176

(D) RW 31 length 7257 ft width 150 ft
---- / hdg 311

(E) RW 35L length 8301 ft width 150 ft
---- / hdg 356

(F) RW 35R length 5949 ft width 150 ft
---- / hdg 356

Location; KHRL
Day. 23 / Time. 08.01 Zulu
* Altimeter: 29.93
* Temperature: 23° c. 73.4°f.
* Wind from: 210° Speed 04 kn.
Dewpoint: 23° c.
Visibility: 3 Statute Miles.
Clouds: Broken 3200 ft.
Clouds: Broken 4600 ft.
Clouds: Overcast 5500 ft.
Conditions: Light Rain.Conditions: Mist.

KHRL 230801Z AUTO 21004KT 3SM -RA BR BKN032 BKN046 OVC055 23/23 A2993 RMK AO2 P0000 T02330233


Wind From 210°
Speed 04 kn.

 
 
jpsmedia.com for Web Design worldairports.se 2018   terms of use